CYUY - Rouyn Noranda

Pirep is a free, collaborative database of all public and private airports located within the United States. All pilots are welcome to contribute, edit, and improve any airport they have local knowledge about, no registration required.
Are you familiar with this airport? Help out other pilots by adding your local knowledge.
Uploaded photos will be licensed under a CC BY-SA 4.0 license. Please only upload photos you have the rights to use.
Tags
Public
Undocu­mented
METAR / TAF
Edit Tags
Food
Camping
Lodging
Car Rental
Bicycles
Swimming
Golfing
Fishing
Hot Springs
Museum
Flying Clubs
Airpark
Upcoming Events
No upcoming events. Is anything happening here soon?
*
*
*

Where exactly on/near the airport is this event taking place?

Is there a webpage with more information for this event?

Who should be contacted for more information?

What is this event all about?

Repeat every
Description
Transient Parking
Fuel Location
Landing & Tie-down Fees
Crew Car Availability
Flying Clubs
WiFi Access
Airport Statistics
Location: Rouyn Noranda, CN
Elevation: 988ft
Activation date: Mar 2005
Fuel: None
Runway 08/26: 7,485ft
Access: Open to the public
Current Weather — VFR
  • Weather data is strictly informational and not for flight planning purposes.
  • METAR
    2024-04-22 07:00:00 EDT
    Ceiling Wind Temperature Dewpoint Weather Visbility
    Sky clear Calm 15°F 10°F N/A 15SM
    Clouds: Few @ 16,000ft, Scattered @ 20,000ft
    Raw: CYUY 221100Z 00000KT 15SM FEW160 SCT200 M09/M12 A2997 RMK AC1CI2 SLP171
  • TAF
    2024-04-22 02:00:00 EDT – 2024-04-22 08:00:00 EDT
    Ceiling Wind Weather Visbility
    Sky clear Variable N/A 6SM
    Clouds: Few @ 10,000ft
    Raw: TAF CYUY 220540Z 2206/2218 VRB03KT P6SM FEW100 FM221200 18005KT P6SM BKN120 BECMG 2213/2215 22010KT FM221700 23012G22KT P6SM SCT020 BKN040 TEMPO 2217/2218 P6SM -SHRA BKN020 OVC040 RMK NXT FCST BY 221200Z
  • TAF
    2024-04-22 08:00:00 EDT – 2024-04-22 09:00:00 EDT
    Ceiling Wind Weather Visbility
    12,000ft 180° @ 5kt N/A 6SM
    Clouds: Broken @ 12,000ft
    Raw: TAF CYUY 220540Z 2206/2218 VRB03KT P6SM FEW100 FM221200 18005KT P6SM BKN120 BECMG 2213/2215 22010KT FM221700 23012G22KT P6SM SCT020 BKN040 TEMPO 2217/2218 P6SM -SHRA BKN020 OVC040 RMK NXT FCST BY 221200Z
  • TAF
    2024-04-22 09:00:00 EDT – 2024-04-22 13:00:00 EDT
    Ceiling Wind Weather Visbility
    12,000ft 220° @ 10kt N/A 6SM
    Clouds: Broken @ 12,000ft
    Raw: TAF CYUY 220540Z 2206/2218 VRB03KT P6SM FEW100 FM221200 18005KT P6SM BKN120 BECMG 2213/2215 22010KT FM221700 23012G22KT P6SM SCT020 BKN040 TEMPO 2217/2218 P6SM -SHRA BKN020 OVC040 RMK NXT FCST BY 221200Z
  • TAF
    2024-04-22 13:00:00 EDT – 2024-04-22 14:00:00 EDT
    Ceiling Wind Weather Visbility
    4,000ft 230° @ 12kt, gusts 22kt N/A 6SM
    Clouds: Scattered @ 2,000ft, Broken @ 4,000ft
    Raw: TAF CYUY 220540Z 2206/2218 VRB03KT P6SM FEW100 FM221200 18005KT P6SM BKN120 BECMG 2213/2215 22010KT FM221700 23012G22KT P6SM SCT020 BKN040 TEMPO 2217/2218 P6SM -SHRA BKN020 OVC040 RMK NXT FCST BY 221200Z
  • TAF
    2024-04-22 13:00:00 EDT – 2024-04-22 14:00:00 EDT
    Ceiling Wind Weather Visbility
    2,000ft ° @ kt Light rain showers 6SM
    Clouds: Broken @ 2,000ft, Overcast @ 4,000ft
    Raw: TAF CYUY 220540Z 2206/2218 VRB03KT P6SM FEW100 FM221200 18005KT P6SM BKN120 BECMG 2213/2215 22010KT FM221700 23012G22KT P6SM SCT020 BKN040 TEMPO 2217/2218 P6SM -SHRA BKN020 OVC040 RMK NXT FCST BY 221200Z
Click/tap to add an annotation marker to the map
Airport Webcams
No webcams added yet.
Direct links to live image URLs will be displayed inline on this page. URLs to separate webpages will be linked to.
URL:
Direct links to live image URLs will be displayed inline on this page. URLs to separate webpages will be linked to.
URL:
Comments
Leave a comment What was your experience like at this airport?